sensor_id;sensor_type;location;lat;lon;timestamp;P1;durP1;ratioP1;P2;durP2;ratioP2
8544;SDS011;4310;51.054;6.994;2022-11-25T00:02:14;10.88;;;5.80;;
8544;SDS011;4310;51.054;6.994;2022-11-25T00:03:18;13.05;;;6.10;;
8544;SDS011;4310;51.054;6.994;2022-11-25T00:04:22;12.25;;;6.12;;
8544;SDS011;4310;51.054;6.994;2022-11-25T00:05:26;13.88;;;6.50;;
8544;SDS011;4310;51.054;6.994;2022-11-25T00:08:00;13.48;;;6.58;;
8544;SDS011;4310;51.054;6.994;2022-11-25T00:09:04;10.60;;;5.97;;
8544;SDS011;4310;51.054;6.994;2022-11-25T00:10:09;14.15;;;6.30;;
8544;SDS011;4310;51.054;6.994;2022-11-25T00:12:24;14.10;;;6.72;;
8544;SDS011;4310;51.054;6.994;2022-11-25T00:13:27;11.70;;;6.12;;
8544;SDS011;4310;51.054;6.994;2022-11-25T00:14:31;13.28;;;6.60;;
8544;SDS011;4310;51.054;6.994;2022-11-25T00:15:35;13.90;;;6.15;;
8544;SDS011;4310;51.054;6.994;2022-11-25T00:16:39;10.35;;;5.97;;
8544;SDS011;4310;51.054;6.994;2022-11-25T00:17:43;14.25;;;6.35;;
8544;SDS011;4310;51.054;6.994;2022-11-25T00:18:47;11.10;;;5.92;;
8544;SDS011;4310;51.054;6.994;2022-11-25T00:19:51;12.43;;;5.70;;
8544;SDS011;4310;51.054;6.994;2022-11-25T00:20:55;11.05;;;6.12;;
8544;SDS011;4310;51.054;6.994;2022-11-25T00:21:58;12.45;;;6.30;;
8544;SDS011;4310;51.054;6.994;2022-11-25T00:23:02;12.98;;;6.65;;
8544;SDS011;4310;51.054;6.994;2022-11-25T00:24:06;10.45;;;6.30;;
8544;SDS011;4310;51.054;6.994;2022-11-25T00:25:10;10.38;;;6.33;;
8544;SDS011;4310;51.054;6.994;2022-11-25T00:26:14;12.88;;;6.10;;
8544;SDS011;4310;51.054;6.994;2022-11-25T00:27:18;10.25;;;5.85;;
8544;SDS011;4310;51.054;6.994;2022-11-25T00:28:22;11.70;;;6.08;;
8544;SDS011;4310;51.054;6.994;2022-11-25T00:29:25;10.88;;;6.17;;
8544;SDS011;4310;51.054;6.994;2022-11-25T00:30:29;12.37;;;5.90;;
8544;SDS011;4310;51.054;6.994;2022-11-25T00:31:34;9.80;;;5.62;;
8544;SDS011;4310;51.054;6.994;2022-11-25T00:32:37;14.55;;;6.50;;
8544;SDS011;4310;51.054;6.994;2022-11-25T00:33:41;12.55;;;6.75;;
8544;SDS011;4310;51.054;6.994;2022-11-25T00:34:45;12.45;;;6.67;;
8544;SDS011;4310;51.054;6.994;2022-11-25T00:35:49;11.22;;;7.35;;
8544;SDS011;4310;51.054;6.994;2022-11-25T00:38:05;12.40;;;7.55;;
8544;SDS011;4310;51.054;6.994;2022-11-25T00:39:09;10.98;;;6.97;;
8544;SDS011;4310;51.054;6.994;2022-11-25T00:40:13;12.93;;;7.40;;
8544;SDS011;4310;51.054;6.994;2022-11-25T00:41:17;12.10;;;6.92;;
8544;SDS011;4310;51.054;6.994;2022-11-25T00:43:50;12.40;;;8.03;;
8544;SDS011;4310;51.054;6.994;2022-11-25T00:45:12;14.33;;;8.35;;
8544;SDS011;4310;51.054;6.994;2022-11-25T00:46:15;11.80;;;7.40;;
8544;SDS011;4310;51.054;6.994;2022-11-25T00:47:20;14.28;;;7.35;;
8544;SDS011;4310;51.054;6.994;2022-11-25T00:48:24;10.90;;;7.33;;
8544;SDS011;4310;51.054;6.994;2022-11-25T00:49:28;12.65;;;7.45;;
8544;SDS011;4310;51.054;6.994;2022-11-25T00:50:31;11.50;;;7.43;;
8544;SDS011;4310;51.054;6.994;2022-11-25T00:51:53;13.48;;;7.97;;
8544;SDS011;4310;51.054;6.994;2022-11-25T00:52:58;12.55;;;7.87;;
8544;SDS011;4310;51.054;6.994;2022-11-25T00:54:02;12.07;;;7.50;;
8544;SDS011;4310;51.054;6.994;2022-11-25T00:55:06;11.65;;;7.42;;
8544;SDS011;4310;51.054;6.994;2022-11-25T00:56:10;13.18;;;7.92;;
8544;SDS011;4310;51.054;6.994;2022-11-25T00:57:17;14.35;;;8.00;;
8544;SDS011;4310;51.054;6.994;2022-11-25T00:58:21;13.75;;;8.40;;
8544;SDS011;4310;51.054;6.994;2022-11-25T00:59:25;11.68;;;8.53;;
8544;SDS011;4310;51.054;6.994;2022-11-25T01:00:30;12.43;;;8.30;;
8544;SDS011;4310;51.054;6.994;2022-11-25T01:01:33;12.60;;;8.98;;
8544;SDS011;4310;51.054;6.994;2022-11-25T01:02:37;14.20;;;9.23;;
8544;SDS011;4310;51.054;6.994;2022-11-25T01:03:41;15.18;;;8.85;;
8544;SDS011;4310;51.054;6.994;2022-11-25T01:04:44;10.10;;;7.47;;
8544;SDS011;4310;51.054;6.994;2022-11-25T01:05:48;12.37;;;8.25;;
8544;SDS011;4310;51.054;6.994;2022-11-25T01:06:53;13.62;;;7.90;;
8544;SDS011;4310;51.054;6.994;2022-11-25T01:07:58;12.10;;;7.75;;
8544;SDS011;4310;51.054;6.994;2022-11-25T01:09:02;12.05;;;8.48;;
8544;SDS011;4310;51.054;6.994;2022-11-25T01:10:06;13.75;;;8.63;;
8544;SDS011;4310;51.054;6.994;2022-11-25T01:11:11;13.70;;;8.58;;
8544;SDS011;4310;51.054;6.994;2022-11-25T01:12:15;11.88;;;8.00;;
8544;SDS011;4310;51.054;6.994;2022-11-25T01:14:31;12.40;;;8.35;;
8544;SDS011;4310;51.054;6.994;2022-11-25T01:15:36;14.43;;;8.40;;
8544;SDS011;4310;51.054;6.994;2022-11-25T01:16:39;13.13;;;8.68;;
8544;SDS011;4310;51.054;6.994;2022-11-25T01:17:43;10.43;;;7.83;;
8544;SDS011;4310;51.054;6.994;2022-11-25T01:18:47;15.73;;;8.50;;
8544;SDS011;4310;51.054;6.994;2022-11-25T01:19:51;13.30;;;8.20;;
8544;SDS011;4310;51.054;6.994;2022-11-25T01:20:55;12.80;;;7.90;;
8544;SDS011;4310;51.054;6.994;2022-11-25T01:22:00;12.40;;;7.72;;
8544;SDS011;4310;51.054;6.994;2022-11-25T01:24:15;12.00;;;8.30;;
8544;SDS011;4310;51.054;6.994;2022-11-25T01:25:19;12.25;;;7.60;;
8544;SDS011;4310;51.054;6.994;2022-11-25T01:26:23;13.83;;;7.50;;
8544;SDS011;4310;51.054;6.994;2022-11-25T01:27:27;11.00;;;7.58;;
8544;SDS011;4310;51.054;6.994;2022-11-25T01:28:31;14.03;;;8.63;;
8544;SDS011;4310;51.054;6.994;2022-11-25T01:29:35;13.62;;;7.67;;
8544;SDS011;4310;51.054;6.994;2022-11-25T01:30:38;11.30;;;7.10;;
8544;SDS011;4310;51.054;6.994;2022-11-25T01:31:43;13.05;;;7.10;;
8544;SDS011;4310;51.054;6.994;2022-11-25T01:32:47;14.30;;;7.28;;
8544;SDS011;4310;51.054;6.994;2022-11-25T01:33:52;10.05;;;7.17;;
8544;SDS011;4310;51.054;6.994;2022-11-25T01:34:56;12.03;;;7.58;;
8544;SDS011;4310;51.054;6.994;2022-11-25T01:36:00;13.18;;;6.87;;
8544;SDS011;4310;51.054;6.994;2022-11-25T01:37:04;10.35;;;6.58;;
8544;SDS011;4310;51.054;6.994;2022-11-25T01:38:08;13.83;;;6.33;;
8544;SDS011;4310;51.054;6.994;2022-11-25T01:39:13;14.00;;;6.53;;
8544;SDS011;4310;51.054;6.994;2022-11-25T01:40:17;10.88;;;6.10;;
8544;SDS011;4310;51.054;6.994;2022-11-25T01:42:33;11.25;;;6.45;;
8544;SDS011;4310;51.054;6.994;2022-11-25T01:43:36;12.85;;;6.00;;
8544;SDS011;4310;51.054;6.994;2022-11-25T01:44:40;9.25;;;6.20;;
8544;SDS011;4310;51.054;6.994;2022-11-25T01:45:44;8.75;;;5.78;;
8544;SDS011;4310;51.054;6.994;2022-11-25T01:47:01;10.00;;;5.85;;
8544;SDS011;4310;51.054;6.994;2022-11-25T01:48:09;13.05;;;6.17;;
8544;SDS011;4310;51.054;6.994;2022-11-25T01:49:14;11.55;;;6.20;;
8544;SDS011;4310;51.054;6.994;2022-11-25T01:50:19;12.88;;;6.97;;
8544;SDS011;4310;51.054;6.994;2022-11-25T01:51:25;9.70;;;5.95;;
8544;SDS011;4310;51.054;6.994;2022-11-25T01:52:29;8.30;;;6.50;;
8544;SDS011;4310;51.054;6.994;2022-11-25T01:53:34;13.18;;;6.22;;
8544;SDS011;4310;51.054;6.994;2022-11-25T01:54:39;11.15;;;6.50;;
8544;SDS011;4310;51.054;6.994;2022-11-25T01:55:43;10.80;;;6.55;;
8544;SDS011;4310;51.054;6.994;2022-11-25T01:58:02;11.38;;;6.62;;
8544;SDS011;4310;51.054;6.994;2022-11-25T01:59:11;11.05;;;6.47;;
8544;SDS011;4310;51.054;6.994;2022-11-25T02:00:16;11.73;;;6.78;;
8544;SDS011;4310;51.054;6.994;2022-11-25T02:01:20;11.55;;;6.95;;
8544;SDS011;4310;51.054;6.994;2022-11-25T02:02:23;9.23;;;6.78;;
8544;SDS011;4310;51.054;6.994;2022-11-25T02:03:28;9.55;;;6.65;;
8544;SDS011;4310;51.054;6.994;2022-11-25T02:04:33;12.33;;;6.90;;
8544;SDS011;4310;51.054;6.994;2022-11-25T02:06:49;10.28;;;6.47;;
8544;SDS011;4310;51.054;6.994;2022-11-25T02:07:54;11.18;;;6.55;;
8544;SDS011;4310;51.054;6.994;2022-11-25T02:08:59;12.73;;;6.97;;
8544;SDS011;4310;51.054;6.994;2022-11-25T02:10:04;9.93;;;6.50;;
8544;SDS011;4310;51.054;6.994;2022-11-25T02:11:08;11.10;;;6.60;;
8544;SDS011;4310;51.054;6.994;2022-11-25T02:12:12;12.82;;;7.10;;
8544;SDS011;4310;51.054;6.994;2022-11-25T02:13:16;11.00;;;6.30;;
8544;SDS011;4310;51.054;6.994;2022-11-25T02:14:21;12.28;;;6.00;;
8544;SDS011;4310;51.054;6.994;2022-11-25T02:15:26;10.20;;;6.45;;
8544;SDS011;4310;51.054;6.994;2022-11-25T02:16:31;11.88;;;7.00;;
8544;SDS011;4310;51.054;6.994;2022-11-25T02:17:34;10.80;;;6.72;;
8544;SDS011;4310;51.054;6.994;2022-11-25T02:18:39;10.55;;;6.53;;
8544;SDS011;4310;51.054;6.994;2022-11-25T02:20:56;11.48;;;6.97;;
8544;SDS011;4310;51.054;6.994;2022-11-25T02:22:00;12.00;;;6.67;;
8544;SDS011;4310;51.054;6.994;2022-11-25T02:23:06;10.63;;;6.75;;
8544;SDS011;4310;51.054;6.994;2022-11-25T02:25:23;10.65;;;6.60;;
8544;SDS011;4310;51.054;6.994;2022-11-25T02:26:27;11.20;;;7.08;;
8544;SDS011;4310;51.054;6.994;2022-11-25T02:27:31;12.00;;;7.12;;
8544;SDS011;4310;51.054;6.994;2022-11-25T02:28:35;12.98;;;7.72;;
8544;SDS011;4310;51.054;6.994;2022-11-25T02:29:39;11.60;;;7.42;;
8544;SDS011;4310;51.054;6.994;2022-11-25T02:30:43;11.63;;;7.50;;
8544;SDS011;4310;51.054;6.994;2022-11-25T02:31:48;12.00;;;7.75;;
8544;SDS011;4310;51.054;6.994;2022-11-25T02:32:52;9.60;;;7.28;;
8544;SDS011;4310;51.054;6.994;2022-11-25T02:35:20;11.83;;;7.60;;
8544;SDS011;4310;51.054;6.994;2022-11-25T02:36:26;10.43;;;7.12;;
8544;SDS011;4310;51.054;6.994;2022-11-25T02:37:29;12.45;;;7.53;;
8544;SDS011;4310;51.054;6.994;2022-11-25T02:39:46;11.55;;;7.53;;
8544;SDS011;4310;51.054;6.994;2022-11-25T02:40:51;10.95;;;8.00;;
8544;SDS011;4310;51.054;6.994;2022-11-25T02:41:55;14.68;;;7.20;;
8544;SDS011;4310;51.054;6.994;2022-11-25T02:43:00;11.60;;;7.50;;
8544;SDS011;4310;51.054;6.994;2022-11-25T02:44:20;9.83;;;7.03;;
8544;SDS011;4310;51.054;6.994;2022-11-25T02:45:25;14.40;;;7.58;;
8544;SDS011;4310;51.054;6.994;2022-11-25T02:46:30;10.10;;;7.20;;
8544;SDS011;4310;51.054;6.994;2022-11-25T02:47:34;14.20;;;7.78;;
8544;SDS011;4310;51.054;6.994;2022-11-25T02:48:38;11.38;;;7.35;;
8544;SDS011;4310;51.054;6.994;2022-11-25T02:49:42;9.58;;;6.62;;
8544;SDS011;4310;51.054;6.994;2022-11-25T02:50:46;12.88;;;6.87;;
8544;SDS011;4310;51.054;6.994;2022-11-25T02:51:50;9.45;;;6.78;;
8544;SDS011;4310;51.054;6.994;2022-11-25T02:52:54;12.70;;;6.70;;
8544;SDS011;4310;51.054;6.994;2022-11-25T02:53:58;11.22;;;6.50;;
8544;SDS011;4310;51.054;6.994;2022-11-25T02:55:02;14.03;;;6.85;;
8544;SDS011;4310;51.054;6.994;2022-11-25T02:56:06;11.75;;;6.37;;
8544;SDS011;4310;51.054;6.994;2022-11-25T02:57:10;11.80;;;6.12;;
8544;SDS011;4310;51.054;6.994;2022-11-25T02:58:14;13.05;;;6.85;;
8544;SDS011;4310;51.054;6.994;2022-11-25T03:00:32;10.15;;;6.45;;
8544;SDS011;4310;51.054;6.994;2022-11-25T03:01:35;12.30;;;6.45;;
8544;SDS011;4310;51.054;6.994;2022-11-25T03:03:51;10.85;;;6.47;;
8544;SDS011;4310;51.054;6.994;2022-11-25T03:04:55;12.07;;;6.67;;
8544;SDS011;4310;51.054;6.994;2022-11-25T03:05:59;10.80;;;5.90;;
8544;SDS011;4310;51.054;6.994;2022-11-25T03:07:02;11.35;;;6.33;;
8544;SDS011;4310;51.054;6.994;2022-11-25T03:08:06;12.10;;;6.50;;
8544;SDS011;4310;51.054;6.994;2022-11-25T03:09:10;11.78;;;6.05;;
8544;SDS011;4310;51.054;6.994;2022-11-25T03:10:14;10.85;;;5.90;;
8544;SDS011;4310;51.054;6.994;2022-11-25T03:11:18;11.15;;;6.33;;
8544;SDS011;4310;51.054;6.994;2022-11-25T03:12:22;10.72;;;6.17;;
8544;SDS011;4310;51.054;6.994;2022-11-25T03:13:26;11.30;;;6.12;;
8544;SDS011;4310;51.054;6.994;2022-11-25T03:14:30;10.15;;;6.25;;
8544;SDS011;4310;51.054;6.994;2022-11-25T03:15:34;11.90;;;6.10;;
8544;SDS011;4310;51.054;6.994;2022-11-25T03:17:50;10.20;;;5.37;;
8544;SDS011;4310;51.054;6.994;2022-11-25T03:18:53;11.68;;;5.70;;
8544;SDS011;4310;51.054;6.994;2022-11-25T03:19:57;10.45;;;5.58;;
8544;SDS011;4310;51.054;6.994;2022-11-25T03:21:01;12.28;;;5.97;;
8544;SDS011;4310;51.054;6.994;2022-11-25T03:22:05;13.65;;;5.87;;
8544;SDS011;4310;51.054;6.994;2022-11-25T03:23:08;11.68;;;5.75;;
8544;SDS011;4310;51.054;6.994;2022-11-25T03:24:12;10.90;;;5.55;;
8544;SDS011;4310;51.054;6.994;2022-11-25T03:25:16;11.88;;;5.30;;
8544;SDS011;4310;51.054;6.994;2022-11-25T03:26:20;10.85;;;5.28;;
8544;SDS011;4310;51.054;6.994;2022-11-25T03:27:23;9.90;;;5.00;;
8544;SDS011;4310;51.054;6.994;2022-11-25T03:28:27;12.65;;;5.85;;
8544;SDS011;4310;51.054;6.994;2022-11-25T03:30:42;11.22;;;5.65;;
8544;SDS011;4310;51.054;6.994;2022-11-25T03:31:46;10.35;;;4.78;;
8544;SDS011;4310;51.054;6.994;2022-11-25T03:32:50;10.88;;;5.60;;
8544;SDS011;4310;51.054;6.994;2022-11-25T03:35:06;10.23;;;5.53;;
8544;SDS011;4310;51.054;6.994;2022-11-25T03:36:11;8.55;;;5.08;;
8544;SDS011;4310;51.054;6.994;2022-11-25T03:37:14;12.03;;;5.40;;
8544;SDS011;4310;51.054;6.994;2022-11-25T03:38:18;9.90;;;5.28;;
8544;SDS011;4310;51.054;6.994;2022-11-25T03:39:22;10.15;;;5.30;;
8544;SDS011;4310;51.054;6.994;2022-11-25T03:40:25;13.08;;;5.53;;
8544;SDS011;4310;51.054;6.994;2022-11-25T03:41:29;10.98;;;5.33;;
8544;SDS011;4310;51.054;6.994;2022-11-25T03:42:33;11.00;;;5.30;;
8544;SDS011;4310;51.054;6.994;2022-11-25T03:43:37;9.23;;;4.90;;
8544;SDS011;4310;51.054;6.994;2022-11-25T03:44:40;11.38;;;5.42;;
8544;SDS011;4310;51.054;6.994;2022-11-25T03:45:44;10.50;;;5.25;;
8544;SDS011;4310;51.054;6.994;2022-11-25T03:46:49;9.48;;;5.35;;
8544;SDS011;4310;51.054;6.994;2022-11-25T03:47:53;10.15;;;5.45;;
8544;SDS011;4310;51.054;6.994;2022-11-25T03:48:57;11.22;;;5.35;;
8544;SDS011;4310;51.054;6.994;2022-11-25T03:50:00;12.18;;;5.20;;
8544;SDS011;4310;51.054;6.994;2022-11-25T03:51:04;11.30;;;5.03;;
8544;SDS011;4310;51.054;6.994;2022-11-25T03:52:08;10.32;;;4.90;;
8544;SDS011;4310;51.054;6.994;2022-11-25T03:53:12;9.27;;;4.87;;
8544;SDS011;4310;51.054;6.994;2022-11-25T03:54:15;9.98;;;5.37;;
8544;SDS011;4310;51.054;6.994;2022-11-25T03:55:19;10.40;;;5.15;;
8544;SDS011;4310;51.054;6.994;2022-11-25T03:56:23;11.30;;;5.17;;
8544;SDS011;4310;51.054;6.994;2022-11-25T03:57:27;10.65;;;5.17;;
8544;SDS011;4310;51.054;6.994;2022-11-25T03:58:30;12.37;;;5.17;;
8544;SDS011;4310;51.054;6.994;2022-11-25T03:59:35;10.10;;;5.10;;
8544;SDS011;4310;51.054;6.994;2022-11-25T04:00:38;12.95;;;5.62;;
8544;SDS011;4310;51.054;6.994;2022-11-25T04:01:42;8.20;;;5.15;;
8544;SDS011;4310;51.054;6.994;2022-11-25T04:03:57;10.57;;;5.03;;
8544;SDS011;4310;51.054;6.994;2022-11-25T04:05:01;11.10;;;5.28;;
8544;SDS011;4310;51.054;6.994;2022-11-25T04:06:07;10.85;;;5.12;;
8544;SDS011;4310;51.054;6.994;2022-11-25T04:07:10;11.40;;;5.22;;
8544;SDS011;4310;51.054;6.994;2022-11-25T04:08:14;10.40;;;5.47;;
8544;SDS011;4310;51.054;6.994;2022-11-25T04:09:18;11.25;;;5.20;;
8544;SDS011;4310;51.054;6.994;2022-11-25T04:10:21;9.65;;;5.15;;
8544;SDS011;4310;51.054;6.994;2022-11-25T04:11:25;10.67;;;5.53;;
8544;SDS011;4310;51.054;6.994;2022-11-25T04:12:31;11.20;;;5.22;;
8544;SDS011;4310;51.054;6.994;2022-11-25T04:13:49;12.18;;;5.72;;
8544;SDS011;4310;51.054;6.994;2022-11-25T04:14:53;10.43;;;5.80;;
8544;SDS011;4310;51.054;6.994;2022-11-25T04:15:57;10.30;;;5.50;;
8544;SDS011;4310;51.054;6.994;2022-11-25T04:17:00;10.93;;;6.45;;
8544;SDS011;4310;51.054;6.994;2022-11-25T04:18:04;10.95;;;6.37;;
8544;SDS011;4310;51.054;6.994;2022-11-25T04:19:08;11.05;;;6.00;;
8544;SDS011;4310;51.054;6.994;2022-11-25T04:20:12;10.45;;;6.37;;
8544;SDS011;4310;51.054;6.994;2022-11-25T04:21:16;10.28;;;6.03;;
8544;SDS011;4310;51.054;6.994;2022-11-25T04:22:20;11.95;;;6.75;;
8544;SDS011;4310;51.054;6.994;2022-11-25T04:23:24;11.00;;;6.08;;
8544;SDS011;4310;51.054;6.994;2022-11-25T04:24:27;12.40;;;6.92;;
8544;SDS011;4310;51.054;6.994;2022-11-25T04:25:31;14.83;;;6.78;;
8544;SDS011;4310;51.054;6.994;2022-11-25T04:26:35;10.48;;;6.40;;
8544;SDS011;4310;51.054;6.994;2022-11-25T04:27:39;13.55;;;7.03;;
8544;SDS011;4310;51.054;6.994;2022-11-25T04:28:42;12.82;;;6.47;;
8544;SDS011;4310;51.054;6.994;2022-11-25T04:29:46;12.15;;;6.05;;
8544;SDS011;4310;51.054;6.994;2022-11-25T04:30:50;9.50;;;6.12;;
8544;SDS011;4310;51.054;6.994;2022-11-25T04:33:11;12.30;;;6.58;;
8544;SDS011;4310;51.054;6.994;2022-11-25T04:34:15;10.72;;;6.00;;
8544;SDS011;4310;51.054;6.994;2022-11-25T04:35:18;9.60;;;6.37;;
8544;SDS011;4310;51.054;6.994;2022-11-25T04:36:22;11.50;;;6.40;;
8544;SDS011;4310;51.054;6.994;2022-11-25T04:37:26;11.83;;;6.90;;
8544;SDS011;4310;51.054;6.994;2022-11-25T04:38:30;10.93;;;6.28;;
8544;SDS011;4310;51.054;6.994;2022-11-25T04:39:34;10.65;;;6.55;;
8544;SDS011;4310;51.054;6.994;2022-11-25T04:40:38;10.58;;;6.87;;
8544;SDS011;4310;51.054;6.994;2022-11-25T04:41:41;12.70;;;7.10;;
8544;SDS011;4310;51.054;6.994;2022-11-25T04:42:45;12.20;;;7.15;;
8544;SDS011;4310;51.054;6.994;2022-11-25T04:43:49;11.65;;;7.62;;
8544;SDS011;4310;51.054;6.994;2022-11-25T04:44:53;12.78;;;8.25;;
8544;SDS011;4310;51.054;6.994;2022-11-25T04:45:57;11.97;;;7.45;;
8544;SDS011;4310;51.054;6.994;2022-11-25T04:47:01;11.57;;;7.85;;
8544;SDS011;4310;51.054;6.994;2022-11-25T04:48:05;14.75;;;8.15;;
8544;SDS011;4310;51.054;6.994;2022-11-25T04:49:09;11.88;;;8.30;;
8544;SDS011;4310;51.054;6.994;2022-11-25T04:51:24;11.45;;;8.73;;
8544;SDS011;4310;51.054;6.994;2022-11-25T04:52:28;12.47;;;9.78;;
8544;SDS011;4310;51.054;6.994;2022-11-25T04:53:32;13.65;;;9.75;;
8544;SDS011;4310;51.054;6.994;2022-11-25T04:54:35;11.43;;;9.28;;
8544;SDS011;4310;51.054;6.994;2022-11-25T04:55:39;12.78;;;11.48;;
8544;SDS011;4310;51.054;6.994;2022-11-25T04:56:43;14.85;;;13.35;;
8544;SDS011;4310;51.054;6.994;2022-11-25T04:57:46;16.30;;;14.47;;
8544;SDS011;4310;51.054;6.994;2022-11-25T04:58:50;17.05;;;15.03;;
8544;SDS011;4310;51.054;6.994;2022-11-25T05:00:12;16.12;;;14.28;;
8544;SDS011;4310;51.054;6.994;2022-11-25T05:01:16;17.05;;;15.25;;
8544;SDS011;4310;51.054;6.994;2022-11-25T05:02:21;18.98;;;17.20;;
8544;SDS011;4310;51.054;6.994;2022-11-25T05:03:25;19.60;;;17.98;;
8544;SDS011;4310;51.054;6.994;2022-11-25T05:05:40;19.87;;;17.98;;
8544;SDS011;4310;51.054;6.994;2022-11-25T05:06:50;18.67;;;16.07;;
8544;SDS011;4310;51.054;6.994;2022-11-25T05:07:54;17.57;;;15.90;;
8544;SDS011;4310;51.054;6.994;2022-11-25T05:08:58;18.07;;;16.37;;
8544;SDS011;4310;51.054;6.994;2022-11-25T05:10:02;18.20;;;16.52;;
8544;SDS011;4310;51.054;6.994;2022-11-25T05:11:06;19.37;;;17.60;;
8544;SDS011;4310;51.054;6.994;2022-11-25T05:13:21;19.25;;;17.35;;
8544;SDS011;4310;51.054;6.994;2022-11-25T05:14:25;19.60;;;17.80;;
8544;SDS011;4310;51.054;6.994;2022-11-25T05:15:29;21.05;;;19.07;;
8544;SDS011;4310;51.054;6.994;2022-11-25T05:16:32;20.92;;;18.87;;
8544;SDS011;4310;51.054;6.994;2022-11-25T05:17:37;17.30;;;15.78;;
8544;SDS011;4310;51.054;6.994;2022-11-25T05:18:41;17.17;;;15.15;;
8544;SDS011;4310;51.054;6.994;2022-11-25T05:19:44;16.50;;;14.73;;
8544;SDS011;4310;51.054;6.994;2022-11-25T05:20:48;15.78;;;14.28;;
8544;SDS011;4310;51.054;6.994;2022-11-25T05:23:06;19.75;;;14.83;;
8544;SDS011;4310;51.054;6.994;2022-11-25T05:24:10;17.98;;;16.37;;
8544;SDS011;4310;51.054;6.994;2022-11-25T05:25:14;20.37;;;17.75;;
8544;SDS011;4310;51.054;6.994;2022-11-25T05:26:18;19.82;;;17.90;;
8544;SDS011;4310;51.054;6.994;2022-11-25T05:27:22;21.73;;;19.90;;
8544;SDS011;4310;51.054;6.994;2022-11-25T05:28:25;23.55;;;21.57;;
8544;SDS011;4310;51.054;6.994;2022-11-25T05:29:29;28.12;;;25.85;;
8544;SDS011;4310;51.054;6.994;2022-11-25T05:30:33;33.60;;;31.02;;
8544;SDS011;4310;51.054;6.994;2022-11-25T05:31:37;37.73;;;34.95;;
8544;SDS011;4310;51.054;6.994;2022-11-25T05:32:41;38.92;;;36.17;;
8544;SDS011;4310;51.054;6.994;2022-11-25T05:33:45;41.53;;;38.48;;
8544;SDS011;4310;51.054;6.994;2022-11-25T05:34:49;39.05;;;36.45;;
8544;SDS011;4310;51.054;6.994;2022-11-25T05:35:53;40.30;;;37.30;;
8544;SDS011;4310;51.054;6.994;2022-11-25T05:36:57;39.55;;;36.65;;
8544;SDS011;4310;51.054;6.994;2022-11-25T05:38:01;39.33;;;36.42;;
8544;SDS011;4310;51.054;6.994;2022-11-25T05:39:05;32.88;;;30.62;;
8544;SDS011;4310;51.054;6.994;2022-11-25T05:40:09;29.98;;;27.73;;
8544;SDS011;4310;51.054;6.994;2022-11-25T05:41:13;33.67;;;31.40;;
8544;SDS011;4310;51.054;6.994;2022-11-25T05:42:17;34.35;;;31.30;;
8544;SDS011;4310;51.054;6.994;2022-11-25T05:43:21;32.58;;;29.85;;
8544;SDS011;4310;51.054;6.994;2022-11-25T05:44:24;34.73;;;32.42;;
8544;SDS011;4310;51.054;6.994;2022-11-25T05:45:28;36.80;;;33.92;;
8544;SDS011;4310;51.054;6.994;2022-11-25T05:46:32;36.08;;;33.53;;
8544;SDS011;4310;51.054;6.994;2022-11-25T05:47:36;36.58;;;33.90;;
8544;SDS011;4310;51.054;6.994;2022-11-25T05:48:39;37.88;;;35.30;;
8544;SDS011;4310;51.054;6.994;2022-11-25T05:50:57;39.53;;;36.83;;
8544;SDS011;4310;51.054;6.994;2022-11-25T05:52:00;42.13;;;39.42;;
8544;SDS011;4310;51.054;6.994;2022-11-25T05:54:15;47.08;;;44.03;;
8544;SDS011;4310;51.054;6.994;2022-11-25T05:55:19;52.13;;;48.70;;
8544;SDS011;4310;51.054;6.994;2022-11-25T05:56:22;52.43;;;49.00;;
8544;SDS011;4310;51.054;6.994;2022-11-25T05:57:26;49.30;;;46.20;;
8544;SDS011;4310;51.054;6.994;2022-11-25T05:58:31;49.83;;;46.73;;
8544;SDS011;4310;51.054;6.994;2022-11-25T06:01:58;41.15;;;38.28;;
8544;SDS011;4310;51.054;6.994;2022-11-25T06:03:01;37.70;;;34.90;;
8544;SDS011;4310;51.054;6.994;2022-11-25T06:04:05;36.50;;;33.70;;
8544;SDS011;4310;51.054;6.994;2022-11-25T06:05:09;35.05;;;32.25;;
8544;SDS011;4310;51.054;6.994;2022-11-25T06:06:12;36.70;;;34.13;;
8544;SDS011;4310;51.054;6.994;2022-11-25T06:07:16;35.73;;;32.88;;
8544;SDS011;4310;51.054;6.994;2022-11-25T06:08:20;32.10;;;29.35;;
8544;SDS011;4310;51.054;6.994;2022-11-25T06:09:24;31.20;;;28.35;;
8544;SDS011;4310;51.054;6.994;2022-11-25T06:10:28;27.80;;;25.60;;
8544;SDS011;4310;51.054;6.994;2022-11-25T06:11:31;24.25;;;22.13;;
8544;SDS011;4310;51.054;6.994;2022-11-25T06:12:35;24.00;;;21.70;;
8544;SDS011;4310;51.054;6.994;2022-11-25T06:13:39;21.48;;;19.32;;
8544;SDS011;4310;51.054;6.994;2022-11-25T06:14:43;20.75;;;18.85;;
8544;SDS011;4310;51.054;6.994;2022-11-25T06:15:46;20.00;;;17.82;;
8544;SDS011;4310;51.054;6.994;2022-11-25T06:16:50;20.20;;;18.15;;
8544;SDS011;4310;51.054;6.994;2022-11-25T06:17:54;21.37;;;19.02;;
8544;SDS011;4310;51.054;6.994;2022-11-25T06:20:10;22.93;;;20.20;;
8544;SDS011;4310;51.054;6.994;2022-11-25T06:21:15;21.70;;;19.52;;
8544;SDS011;4310;51.054;6.994;2022-11-25T06:22:18;22.27;;;20.40;;
8544;SDS011;4310;51.054;6.994;2022-11-25T06:23:22;25.00;;;22.27;;
8544;SDS011;4310;51.054;6.994;2022-11-25T06:24:26;23.75;;;21.35;;
8544;SDS011;4310;51.054;6.994;2022-11-25T06:25:30;24.72;;;22.35;;
8544;SDS011;4310;51.054;6.994;2022-11-25T06:26:33;26.48;;;24.10;;
8544;SDS011;4310;51.054;6.994;2022-11-25T06:27:37;27.62;;;25.12;;
8544;SDS011;4310;51.054;6.994;2022-11-25T06:28:41;28.17;;;25.68;;
8544;SDS011;4310;51.054;6.994;2022-11-25T06:29:45;27.07;;;24.80;;
8544;SDS011;4310;51.054;6.994;2022-11-25T06:30:48;27.85;;;25.40;;
8544;SDS011;4310;51.054;6.994;2022-11-25T06:31:52;26.40;;;24.20;;
8544;SDS011;4310;51.054;6.994;2022-11-25T06:32:56;27.27;;;24.70;;
8544;SDS011;4310;51.054;6.994;2022-11-25T06:34:00;29.00;;;26.37;;
8544;SDS011;4310;51.054;6.994;2022-11-25T06:35:04;30.50;;;27.93;;
8544;SDS011;4310;51.054;6.994;2022-11-25T06:36:08;29.48;;;27.15;;
8544;SDS011;4310;51.054;6.994;2022-11-25T06:37:15;30.00;;;27.00;;
8544;SDS011;4310;51.054;6.994;2022-11-25T06:39:30;29.42;;;27.00;;
8544;SDS011;4310;51.054;6.994;2022-11-25T06:40:34;31.37;;;28.55;;
8544;SDS011;4310;51.054;6.994;2022-11-25T06:41:38;29.18;;;26.57;;
8544;SDS011;4310;51.054;6.994;2022-11-25T06:42:41;29.87;;;27.15;;
8544;SDS011;4310;51.054;6.994;2022-11-25T06:43:45;32.10;;;29.07;;
8544;SDS011;4310;51.054;6.994;2022-11-25T06:44:49;31.75;;;28.90;;
8544;SDS011;4310;51.054;6.994;2022-11-25T06:45:53;31.40;;;28.80;;
8544;SDS011;4310;51.054;6.994;2022-11-25T06:48:08;29.87;;;27.13;;
8544;SDS011;4310;51.054;6.994;2022-11-25T06:49:11;30.25;;;27.42;;
8544;SDS011;4310;51.054;6.994;2022-11-25T06:50:15;30.08;;;27.32;;
8544;SDS011;4310;51.054;6.994;2022-11-25T06:51:19;31.05;;;28.07;;
8544;SDS011;4310;51.054;6.994;2022-11-25T06:52:23;28.65;;;25.97;;
8544;SDS011;4310;51.054;6.994;2022-11-25T06:53:26;28.60;;;26.05;;
8544;SDS011;4310;51.054;6.994;2022-11-25T06:54:30;27.25;;;24.72;;
8544;SDS011;4310;51.054;6.994;2022-11-25T06:55:34;29.73;;;27.13;;
8544;SDS011;4310;51.054;6.994;2022-11-25T06:56:38;29.07;;;26.48;;
8544;SDS011;4310;51.054;6.994;2022-11-25T06:57:41;29.10;;;26.30;;
8544;SDS011;4310;51.054;6.994;2022-11-25T06:58:45;28.35;;;25.97;;
8544;SDS011;4310;51.054;6.994;2022-11-25T06:59:49;30.40;;;27.45;;
8544;SDS011;4310;51.054;6.994;2022-11-25T07:02:05;30.02;;;27.67;;
8544;SDS011;4310;51.054;6.994;2022-11-25T07:03:08;30.92;;;28.25;;
8544;SDS011;4310;51.054;6.994;2022-11-25T07:04:12;30.92;;;28.17;;
8544;SDS011;4310;51.054;6.994;2022-11-25T07:05:16;30.08;;;27.48;;
8544;SDS011;4310;51.054;6.994;2022-11-25T07:06:20;30.95;;;28.35;;
8544;SDS011;4310;51.054;6.994;2022-11-25T07:07:23;30.72;;;28.15;;
8544;SDS011;4310;51.054;6.994;2022-11-25T07:08:27;30.23;;;27.73;;
8544;SDS011;4310;51.054;6.994;2022-11-25T07:09:31;28.92;;;26.55;;
8544;SDS011;4310;51.054;6.994;2022-11-25T07:10:35;36.15;;;33.55;;
8544;SDS011;4310;51.054;6.994;2022-11-25T07:12:50;38.63;;;35.65;;
8544;SDS011;4310;51.054;6.994;2022-11-25T07:13:55;35.80;;;33.42;;